Time;durP1;ratioP1;P1;durP2;ratioP2;P2;SDS_P1;SDS_P2;PMS_P1;PMS_P2;Temp;Humidity;BMP_temperature;BMP_pressure;BME280_temperature;BME280_humidity;BME280_pressure;Samples;Min_cycle;Max_cycle;Signal;HPM_P1;HPM_P2
2021/08/19 00:00:05;;;;;;;0.85;0.70;;;18.20;93.30;;;;;;5055618;28;20029;-77
2021/08/19 00:02:31;;;;;;;0.95;0.60;;;18.20;93.00;;;;;;5054355;28;20055;-78
2021/08/19 00:04:57;;;;;;;2.03;0.82;;;18.20;93.00;;;;;;5055422;28;20059;-77
2021/08/19 00:07:22;;;;;;;1.30;0.70;;;18.20;93.00;;;;;;5054458;28;20021;-80
2021/08/19 00:09:48;;;;;;;0.80;0.68;;;18.20;93.00;;;;;;5054585;28;20021;-79
2021/08/19 00:12:14;;;;;;;1.35;0.75;;;18.20;93.00;;;;;;5054109;28;20025;-79
2021/08/19 00:14:40;;;;;;;2.00;1.00;;;18.20;92.90;;;;;;5053451;28;20040;-79
2021/08/19 00:17:08;;;;;;;1.10;0.82;;;18.20;92.90;;;;;;5054139;28;20017;-79
2021/08/19 00:19:34;;;;;;;2.28;0.65;;;18.20;92.90;;;;;;5053582;28;20021;-79
2021/08/19 00:22:04;;;;;;;3.25;0.77;;;18.20;92.90;;;;;;5053965;28;20024;-79
2021/08/19 00:24:30;;;;;;;2.97;1.00;;;18.20;92.90;;;;;;5054093;28;20541;-80
2021/08/19 00:26:56;;;;;;;1.63;0.70;;;18.10;92.90;;;;;;5053460;28;20032;-79
2021/08/19 00:29:21;;;;;;;1.05;0.88;;;18.20;93.00;;;;;;5054261;28;20365;-79
2021/08/19 00:31:47;;;;;;;1.40;0.70;;;18.10;93.00;;;;;;5054276;28;20032;-80
2021/08/19 00:34:13;;;;;;;2.03;0.70;;;18.20;93.00;;;;;;5055131;28;20045;-79
2021/08/19 00:36:39;;;;;;;1.17;0.88;;;18.10;92.90;;;;;;5053140;28;20048;-80
2021/08/19 00:39:05;;;;;;;1.10;0.70;;;18.20;93.00;;;;;;5055140;28;20013;-80
2021/08/19 00:41:32;;;;;;;1.13;0.70;;;18.10;93.00;;;;;;5053787;28;20122;-79
2021/08/19 00:43:59;;;;;;;1.73;0.80;;;18.10;93.00;;;;;;5053393;28;20036;-79
2021/08/19 00:46:44;;;;;;;1.30;0.80;;;18.10;93.10;;;;;;5053639;28;20055;-80
2021/08/19 00:49:13;;;;;;;2.05;1.05;;;18.10;93.10;;;;;;5053714;28;20032;-79
2021/08/19 00:51:44;;;;;;;1.00;0.90;;;18.10;93.10;;;;;;5053973;28;20021;-80
2021/08/19 00:54:18;;;;;;;3.10;1.10;;;18.10;93.00;;;;;;5053882;28;20091;-79
2021/08/19 00:56:44;;;;;;;1.20;0.90;;;18.10;93.00;;;;;;5052836;28;20048;-79
2021/08/19 00:59:15;;;;;;;0.75;0.70;;;18.10;92.90;;;;;;5054436;28;20028;-79
2021/08/19 01:01:40;;;;;;;1.27;1.00;;;18.10;93.00;;;;;;5053702;28;20029;-77
2021/08/19 01:04:09;;;;;;;1.27;0.80;;;18.10;93.00;;;;;;5053382;28;20029;-78
2021/08/19 01:06:36;;;;;;;3.17;0.95;;;18.10;93.00;;;;;;5054298;28;20021;-77
2021/08/19 01:09:04;;;;;;;3.70;1.00;;;18.10;93.00;;;;;;5054006;28;20028;-78
2021/08/19 01:11:33;;;;;;;2.35;1.02;;;18.10;93.00;;;;;;5053156;28;20067;-78
2021/08/19 01:13:59;;;;;;;1.60;1.08;;;18.10;93.00;;;;;;5052533;28;20033;-77
2021/08/19 01:16:25;;;;;;;1.23;0.70;;;18.10;93.00;;;;;;5069738;28;20028;-77
2021/08/19 01:18:51;;;;;;;1.05;0.90;;;18.10;93.00;;;;;;5053785;28;20013;-77
2021/08/19 01:21:17;;;;;;;1.90;1.00;;;18.10;93.00;;;;;;5053053;28;20025;-77
2021/08/19 01:23:43;;;;;;;2.97;1.00;;;18.10;93.10;;;;;;5053575;28;20035;-77
2021/08/19 01:26:12;;;;;;;2.35;1.10;;;18.00;93.10;;;;;;5053090;28;20025;-78
2021/08/19 01:28:39;;;;;;;1.20;0.90;;;18.10;93.10;;;;;;5052553;28;20025;-77
2021/08/19 01:31:06;;;;;;;3.13;1.17;;;18.10;93.10;;;;;;5052917;28;20020;-77
2021/08/19 01:33:32;;;;;;;1.20;1.10;;;18.00;93.10;;;;;;5052062;28;20045;-78
2021/08/19 01:35:59;;;;;;;1.67;1.20;;;18.00;93.10;;;;;;5053243;28;20515;-77
2021/08/19 01:38:32;;;;;;;1.33;1.20;;;18.00;93.20;;;;;;5052861;28;20464;-77
2021/08/19 01:40:58;;;;;;;1.42;1.10;;;18.00;93.20;;;;;;5052315;28;20381;-77
2021/08/19 01:43:28;;;;;;;1.45;1.30;;;17.90;93.20;;;;;;5052449;28;20025;-80
2021/08/19 01:46:18;;;;;;;2.47;1.00;;;17.90;93.20;;;;;;5052562;28;20155;-77
2021/08/19 01:48:45;;;;;;;1.35;0.98;;;17.90;93.20;;;;;;5052120;28;20025;-77
2021/08/19 01:51:13;;;;;;;2.13;1.10;;;17.90;93.20;;;;;;5052518;28;20016;-78
2021/08/19 01:53:42;;;;;;;1.33;0.90;;;17.90;93.20;;;;;;5051705;28;20129;-77
2021/08/19 01:56:08;;;;;;;1.77;1.00;;;17.90;93.20;;;;;;5052376;28;20017;-78
2021/08/19 01:58:33;;;;;;;1.10;0.98;;;18.00;93.20;;;;;;5053577;28;20150;-78
2021/08/19 02:00:59;;;;;;;1.48;1.00;;;17.90;93.20;;;;;;5052406;28;20476;-77
2021/08/19 02:03:25;;;;;;;1.75;1.10;;;17.90;93.20;;;;;;5053018;28;20025;-78
2021/08/19 02:05:50;;;;;;;2.22;1.20;;;17.90;93.20;;;;;;5052788;28;20025;-78
2021/08/19 02:08:17;;;;;;;4.22;1.23;;;17.90;93.30;;;;;;5057686;28;20021;-79
2021/08/19 02:10:44;;;;;;;2.15;1.30;;;17.90;93.20;;;;;;5056175;28;20466;-79
2021/08/19 02:13:11;;;;;;;2.35;1.15;;;17.90;93.20;;;;;;5057543;28;20445;-79
2021/08/19 02:15:37;;;;;;;2.17;1.20;;;17.90;93.30;;;;;;5056517;28;20032;-78
2021/08/19 02:18:02;;;;;;;1.70;1.10;;;17.90;93.30;;;;;;5057017;28;20459;-78
2021/08/19 02:20:28;;;;;;;3.55;1.25;;;17.80;93.20;;;;;;5057615;28;20021;-78
2021/08/19 02:23:01;;;;;;;3.10;1.05;;;17.90;93.30;;;;;;5055744;28;20021;-78
2021/08/19 02:25:28;;;;;;;2.40;1.25;;;17.90;93.20;;;;;;5057542;28;20040;-78
2021/08/19 02:27:54;;;;;;;2.17;1.33;;;17.80;93.20;;;;;;5055776;28;20051;-79
2021/08/19 02:30:19;;;;;;;2.55;1.20;;;17.80;93.20;;;;;;5056789;28;20523;-78
2021/08/19 02:32:52;;;;;;;2.28;1.40;;;17.80;93.30;;;;;;5054988;28;20045;-78
2021/08/19 02:35:18;;;;;;;3.55;1.23;;;17.80;93.30;;;;;;5056434;28;20041;-78
2021/08/19 02:37:43;;;;;;;1.40;1.10;;;17.80;93.20;;;;;;5055575;28;20067;-78
2021/08/19 02:40:09;;;;;;;2.67;1.80;;;17.70;93.30;;;;;;5055970;28;20048;-78
2021/08/19 02:42:35;;;;;;;2.13;1.60;;;17.80;93.30;;;;;;5055933;28;20056;-78
2021/08/19 02:45:01;;;;;;;1.50;1.40;;;17.80;93.20;;;;;;5055363;28;20283;-78
2021/08/19 02:47:26;;;;;;;2.35;1.33;;;17.70;93.30;;;;;;5056438;28;20021;-78
2021/08/19 02:49:52;;;;;;;2.55;1.20;;;17.80;93.30;;;;;;5055160;28;20028;-78
2021/08/19 02:52:17;;;;;;;1.55;1.40;;;17.80;93.20;;;;;;5056635;28;20446;-78
2021/08/19 02:54:43;;;;;;;1.42;1.27;;;17.70;93.10;;;;;;5055421;28;20033;-78
2021/08/19 02:57:09;;;;;;;2.20;1.40;;;17.80;93.10;;;;;;5055635;28;20457;-78
2021/08/19 02:59:34;;;;;;;2.88;1.30;;;17.80;93.00;;;;;;5056895;28;20461;-79
2021/08/19 03:02:00;;;;;;;2.45;1.30;;;17.80;93.00;;;;;;5055074;28;20025;-79
2021/08/19 03:04:25;;;;;;;1.38;1.27;;;17.80;92.90;;;;;;5056660;28;20029;-78
2021/08/19 03:06:51;;;;;;;3.17;1.38;;;17.90;92.90;;;;;;5055065;28;20445;-78
2021/08/19 03:09:16;;;;;;;2.25;1.40;;;17.80;92.80;;;;;;5056678;28;20029;-78
2021/08/19 03:11:42;;;;;;;3.70;1.42;;;17.80;92.90;;;;;;5055413;28;20441;-78
2021/08/19 03:14:08;;;;;;;2.15;1.63;;;17.80;92.80;;;;;;5055233;28;20036;-78
2021/08/19 03:16:34;;;;;;;1.80;1.30;;;17.80;92.80;;;;;;5055599;28;20465;-78
2021/08/19 03:19:01;;;;;;;1.60;1.00;;;17.90;92.80;;;;;;5055230;28;20369;-78
2021/08/19 03:21:26;;;;;;;2.38;1.60;;;17.90;92.70;;;;;;5055634;28;20059;-78
2021/08/19 03:23:52;;;;;;;2.40;1.27;;;17.90;92.60;;;;;;5054626;28;20021;-79
2021/08/19 03:26:18;;;;;;;3.20;1.65;;;17.90;92.60;;;;;;5055432;28;20024;-79
2021/08/19 03:28:45;;;;;;;2.45;1.42;;;17.90;92.60;;;;;;5055036;28;20131;-78
2021/08/19 03:31:10;;;;;;;4.22;1.70;;;17.90;92.60;;;;;;5055171;28;20099;-78
2021/08/19 03:33:37;;;;;;;4.07;1.60;;;17.90;92.60;;;;;;5055052;28;20461;-78
2021/08/19 03:36:04;;;;;;;2.60;1.40;;;17.90;92.60;;;;;;5054389;28;20025;-79
2021/08/19 03:38:29;;;;;;;1.95;1.38;;;17.90;92.60;;;;;;5055958;28;20067;-78
2021/08/19 03:40:55;;;;;;;2.35;1.38;;;17.90;92.60;;;;;;5054348;28;20029;-78
2021/08/19 03:43:21;;;;;;;1.65;1.30;;;17.90;92.60;;;;;;5056114;28;20029;-78
2021/08/19 03:45:49;;;;;;;2.38;1.63;;;17.90;92.60;;;;;;5054338;28;20476;-78
2021/08/19 03:48:17;;;;;;;3.83;1.40;;;17.90;92.50;;;;;;5055788;28;20021;-78
2021/08/19 03:50:43;;;;;;;2.47;1.63;;;18.00;92.90;;;;;;5055828;28;20017;-78
2021/08/19 03:53:09;;;;;;;3.28;1.58;;;18.00;92.50;;;;;;5054221;28;20028;-78
2021/08/19 03:55:34;;;;;;;3.38;1.50;;;17.90;92.50;;;;;;5054650;28;20029;-79
2021/08/19 03:58:00;;;;;;;2.13;1.38;;;17.90;92.50;;;;;;5055208;28;20040;-79
2021/08/19 04:00:25;;;;;;;4.05;1.40;;;17.90;92.50;;;;;;5054652;28;20116;-78
2021/08/19 04:02:51;;;;;;;2.05;1.70;;;17.90;92.60;;;;;;5054015;28;20032;-79
2021/08/19 04:05:17;;;;;;;3.60;1.60;;;17.90;92.90;;;;;;5054475;28;20116;-78
2021/08/19 04:07:43;;;;;;;3.15;1.70;;;17.90;92.60;;;;;;5054567;28;20519;-79
2021/08/19 04:10:09;;;;;;;1.80;1.42;;;17.90;92.50;;;;;;5054020;28;20021;-78
2021/08/19 04:12:35;;;;;;;3.20;1.55;;;17.90;92.50;;;;;;5054250;28;20032;-79
2021/08/19 04:15:03;;;;;;;2.17;1.42;;;17.90;92.80;;;;;;5054474;28;20506;-79
2021/08/19 04:17:29;;;;;;;3.55;1.60;;;17.90;92.50;;;;;;5054209;28;20021;-79
2021/08/19 04:19:55;;;;;;;2.70;1.55;;;17.90;92.50;;;;;;5054952;28;20032;-79
2021/08/19 04:22:20;;;;;;;4.20;1.52;;;17.90;92.50;;;;;;5054272;28;20049;-79
2021/08/19 04:24:46;;;;;;;2.40;1.70;;;17.90;92.40;;;;;;5055384;28;20450;-78
2021/08/19 04:27:12;;;;;;;3.50;1.70;;;18.00;92.50;;;;;;5053775;28;20021;-79
2021/08/19 04:29:38;;;;;;;2.85;1.73;;;18.00;92.40;;;;;;5054143;28;20024;-78
2021/08/19 04:32:04;;;;;;;2.75;1.45;;;17.90;92.40;;;;;;5053483;28;20464;-78
2021/08/19 04:34:30;;;;;;;3.78;1.73;;;18.00;92.40;;;;;;5054501;28;20497;-79
2021/08/19 04:36:56;;;;;;;3.17;1.60;;;17.90;92.40;;;;;;5052424;28;20033;-78
2021/08/19 04:39:22;;;;;;;2.83;1.63;;;17.90;92.50;;;;;;5053109;28;20040;-78
2021/08/19 04:41:47;;;;;;;4.25;1.65;;;17.90;92.50;;;;;;5053492;28;20031;-78
2021/08/19 04:44:13;;;;;;;3.50;1.58;;;18.00;92.50;;;;;;5053909;28;20083;-79
2021/08/19 04:46:39;;;;;;;2.38;1.27;;;17.90;92.40;;;;;;5054696;28;20100;-79
2021/08/19 04:49:07;;;;;;;2.40;1.58;;;17.90;92.40;;;;;;5053177;28;20021;-78
2021/08/19 04:51:34;;;;;;;2.60;1.58;;;18.00;92.50;;;;;;5053756;28;20047;-78
2021/08/19 04:54:02;;;;;;;2.15;1.40;;;18.00;92.40;;;;;;5052266;28;20067;-79
2021/08/19 04:56:29;;;;;;;1.52;1.38;;;18.00;92.30;;;;;;5054131;28;20091;-79
2021/08/19 04:58:56;;;;;;;4.30;1.83;;;18.00;92.30;;;;;;5053067;28;20097;-79
2021/08/19 05:01:21;;;;;;;2.10;1.35;;;18.00;92.30;;;;;;5054527;28;20028;-78
2021/08/19 05:03:47;;;;;;;3.20;1.42;;;18.00;92.40;;;;;;5053069;28;20037;-78
2021/08/19 05:06:12;;;;;;;2.28;1.63;;;18.00;92.40;;;;;;5053293;28;20445;-78
2021/08/19 05:08:38;;;;;;;1.88;1.30;;;18.00;92.40;;;;;;5053784;28;20167;-79
2021/08/19 05:11:03;;;;;;;2.10;1.80;;;18.00;92.40;;;;;;5054000;28;20044;-78
2021/08/19 05:13:31;;;;;;;2.17;1.40;;;18.10;92.40;;;;;;5052739;28;20040;-78
2021/08/19 05:15:57;;;;;;;3.97;1.35;;;18.00;92.40;;;;;;5052012;28;20370;-78
2021/08/19 05:18:22;;;;;;;3.65;1.70;;;18.10;92.30;;;;;;5052875;28;20036;-78
2021/08/19 05:20:48;;;;;;;3.03;1.50;;;18.10;92.40;;;;;;5052509;28;20082;-79
2021/08/19 05:23:14;;;;;;;4.18;1.77;;;18.10;92.40;;;;;;5051520;28;20021;-78
2021/08/19 05:25:39;;;;;;;5.07;1.88;;;18.10;92.40;;;;;;5052736;28;20071;-78
2021/08/19 05:28:05;;;;;;;2.00;1.33;;;18.10;92.40;;;;;;5053166;28;20025;-79
2021/08/19 05:30:30;;;;;;;2.80;1.67;;;18.10;92.40;;;;;;5052560;28;20105;-78
2021/08/19 05:32:56;;;;;;;1.73;1.52;;;18.10;92.40;;;;;;5051450;28;20052;-79
2021/08/19 05:35:22;;;;;;;2.55;1.90;;;18.10;92.50;;;;;;5051751;28;20533;-78
2021/08/19 05:37:48;;;;;;;3.55;1.70;;;18.10;92.40;;;;;;5052834;28;20033;-78
2021/08/19 05:40:14;;;;;;;2.33;1.83;;;18.10;92.40;;;;;;5051946;28;20025;-78
2021/08/19 05:42:39;;;;;;;2.75;1.60;;;18.10;92.40;;;;;;5053052;28;20423;-78
2021/08/19 05:45:06;;;;;;;2.92;1.52;;;18.10;92.60;;;;;;5053290;28;20040;-78
2021/08/19 05:47:31;;;;;;;3.78;1.80;;;18.10;92.50;;;;;;5052825;28;20462;-79
2021/08/19 05:49:57;;;;;;;2.78;1.83;;;18.10;92.50;;;;;;5051817;28;20028;-78
2021/08/19 05:52:22;;;;;;;3.15;1.80;;;18.10;92.50;;;;;;5052733;28;20060;-78
2021/08/19 05:54:48;;;;;;;4.32;2.25;;;18.20;92.50;;;;;;5051273;28;20140;-78
2021/08/19 05:57:16;;;;;;;4.28;1.80;;;18.10;92.50;;;;;;5051133;28;20652;-78
2021/08/19 05:59:44;;;;;;;3.70;2.13;;;18.20;92.60;;;;;;5054391;28;20025;-78
2021/08/19 06:02:10;;;;;;;3.13;1.92;;;18.20;92.60;;;;;;5053364;28;20037;-78
2021/08/19 06:04:37;;;;;;;3.05;1.75;;;18.10;92.70;;;;;;5052200;28;20370;-78
2021/08/19 06:07:03;;;;;;;3.65;1.98;;;18.20;92.80;;;;;;5051836;28;20025;-78
2021/08/19 06:09:29;;;;;;;3.63;2.10;;;18.20;92.80;;;;;;5052558;28;20025;-78
2021/08/19 06:11:55;;;;;;;2.88;1.98;;;18.10;92.80;;;;;;5051886;28;20021;-78
2021/08/19 06:14:21;;;;;;;2.53;2.00;;;18.10;92.90;;;;;;5051712;28;20037;-79
2021/08/19 06:16:46;;;;;;;3.03;1.83;;;18.10;92.90;;;;;;5052759;28;20033;-78
2021/08/19 06:19:12;;;;;;;3.70;1.80;;;18.10;93.00;;;;;;5051543;28;20028;-78
2021/08/19 06:21:37;;;;;;;5.28;2.10;;;18.10;93.00;;;;;;5051575;28;20025;-78
2021/08/19 06:24:04;;;;;;;3.42;2.00;;;18.20;93.10;;;;;;5052472;28;20025;-78
2021/08/19 06:26:29;;;;;;;1.92;1.67;;;18.20;92.90;;;;;;5052189;28;20025;-79
2021/08/19 06:28:55;;;;;;;5.47;1.70;;;18.20;92.90;;;;;;5051960;28;20032;-78
2021/08/19 06:31:21;;;;;;;2.40;1.80;;;18.20;93.00;;;;;;5052149;28;20110;-78
2021/08/19 06:33:46;;;;;;;2.67;1.73;;;18.20;93.00;;;;;;5051975;28;20053;-79
2021/08/19 06:36:12;;;;;;;6.97;2.00;;;18.30;93.00;;;;;;5051382;28;20388;-78
2021/08/19 06:38:38;;;;;;;4.18;1.95;;;18.30;93.00;;;;;;5052077;28;20075;-78
2021/08/19 06:41:03;;;;;;;3.28;1.60;;;18.30;92.90;;;;;;5051684;28;20021;-79
2021/08/19 06:43:29;;;;;;;3.30;2.05;;;18.30;93.00;;;;;;5052501;28;20063;-78
2021/08/19 06:45:55;;;;;;;3.75;2.00;;;18.30;93.10;;;;;;5053534;28;20032;-77
2021/08/19 06:48:21;;;;;;;3.03;2.28;;;18.30;92.90;;;;;;5051351;28;20037;-79
2021/08/19 06:50:47;;;;;;;2.72;1.98;;;18.40;92.80;;;;;;5052568;28;20036;-79
2021/08/19 06:53:12;;;;;;;2.15;1.70;;;18.40;93.00;;;;;;5052232;28;20477;-78
2021/08/19 06:55:38;;;;;;;3.47;2.25;;;18.40;93.10;;;;;;5055665;28;20031;-78
2021/08/19 06:58:03;;;;;;;3.28;1.83;;;18.40;93.10;;;;;;5054833;28;20032;-78
2021/08/19 07:00:29;;;;;;;4.05;2.00;;;18.40;93.10;;;;;;5055263;28;20040;-78
2021/08/19 07:02:55;;;;;;;3.83;2.08;;;18.40;93.00;;;;;;5054997;28;20488;-78
2021/08/19 07:05:20;;;;;;;3.67;2.10;;;18.50;92.90;;;;;;5055963;28;20111;-78
2021/08/19 07:07:46;;;;;;;6.05;2.60;;;18.40;92.80;;;;;;5055659;28;20115;-78
2021/08/19 07:10:12;;;;;;;3.15;1.90;;;18.40;92.90;;;;;;5056026;28;20025;-78
2021/08/19 07:12:38;;;;;;;4.10;2.17;;;18.40;92.80;;;;;;5055366;28;20450;-79
2021/08/19 07:15:05;;;;;;;4.40;2.10;;;18.40;92.70;;;;;;5054720;28;20477;-78
2021/08/19 07:17:31;;;;;;;2.33;1.77;;;18.50;92.80;;;;;;5055497;28;20063;-78
2021/08/19 07:19:57;;;;;;;3.00;2.00;;;18.50;92.90;;;;;;5055136;28;20049;-78
2021/08/19 07:22:22;;;;;;;5.70;2.00;;;18.50;92.90;;;;;;5055883;28;20451;-78
2021/08/19 07:24:48;;;;;;;3.42;1.90;;;18.50;92.80;;;;;;5054887;28;20386;-78
2021/08/19 07:27:14;;;;;;;5.30;1.70;;;18.50;92.60;;;;;;5054436;28;20036;-78
2021/08/19 07:29:39;;;;;;;3.97;1.80;;;18.50;92.60;;;;;;5054894;28;20075;-78
2021/08/19 07:32:05;;;;;;;2.55;1.60;;;18.60;92.50;;;;;;5054710;28;20068;-79
2021/08/19 07:34:31;;;;;;;4.65;1.60;;;18.70;92.60;;;;;;5062857;28;20037;-78
2021/08/19 07:36:57;;;;;;;2.47;1.73;;;18.70;92.50;;;;;;5054184;28;20079;-78
2021/08/19 07:39:22;;;;;;;3.55;1.95;;;18.70;92.40;;;;;;5052856;28;20450;-78
2021/08/19 07:41:48;;;;;;;4.07;2.00;;;18.70;92.30;;;;;;5053313;28;20023;-78
2021/08/19 07:44:14;;;;;;;2.63;1.77;;;18.70;92.30;;;;;;5051278;28;20116;-78
2021/08/19 07:46:40;;;;;;;3.92;1.77;;;18.70;92.20;;;;;;5054891;28;20033;-78
2021/08/19 07:49:05;;;;;;;6.88;1.88;;;18.80;92.20;;;;;;5052527;28;20025;-78
2021/08/19 07:51:31;;;;;;;5.10;1.75;;;18.80;92.10;;;;;;5054036;28;20033;-79
2021/08/19 07:53:58;;;;;;;3.38;1.83;;;18.90;91.90;;;;;;5054136;28;20036;-79
2021/08/19 07:56:24;;;;;;;2.88;1.55;;;18.90;91.80;;;;;;5053307;28;20029;-80
2021/08/19 07:58:49;;;;;;;2.67;1.80;;;19.00;91.80;;;;;;5054052;28;20100;-78
2021/08/19 08:01:15;;;;;;;1.75;1.35;;;19.00;91.40;;;;;;5052625;28;20022;-78
2021/08/19 08:03:40;;;;;;;2.55;1.65;;;19.00;91.40;;;;;;5053212;28;20124;-78
2021/08/19 08:06:06;;;;;;;2.22;1.50;;;19.10;91.60;;;;;;5052658;28;20104;-78
2021/08/19 08:08:32;;;;;;;2.83;1.63;;;19.10;91.50;;;;;;5054818;28;20441;-78
2021/08/19 08:10:57;;;;;;;4.10;1.50;;;19.10;91.40;;;;;;5055054;28;20021;-78
2021/08/19 08:13:23;;;;;;;2.28;1.50;;;19.20;91.40;;;;;;5053244;28;20021;-78
2021/08/19 08:15:49;;;;;;;2.72;1.67;;;19.20;91.20;;;;;;5053715;28;20112;-78
2021/08/19 08:18:17;;;;;;;3.35;1.50;;;19.20;91.10;;;;;;5054314;28;20066;-78
2021/08/19 08:20:44;;;;;;;2.30;1.35;;;19.20;90.90;;;;;;5051315;28;20381;-79
2021/08/19 08:23:10;;;;;;;1.95;1.45;;;19.20;90.80;;;;;;5052189;28;20136;-78
2021/08/19 08:25:36;;;;;;;2.60;1.60;;;19.20;90.80;;;;;;5053205;28;20090;-78
2021/08/19 08:28:09;;;;;;;2.35;1.30;;;19.30;90.70;;;;;;5052692;28;20033;-77
2021/08/19 08:30:41;;;;;;;1.88;1.25;;;19.40;90.70;;;;;;5044395;28;20029;-78
2021/08/19 08:33:07;;;;;;;1.98;1.50;;;19.50;90.50;;;;;;5064955;28;20049;-80
2021/08/19 08:35:36;;;;;;;2.22;1.60;;;19.50;90.30;;;;;;5054435;28;20033;-80
2021/08/19 08:38:08;;;;;;;1.60;1.40;;;19.50;90.10;;;;;;5041651;28;20025;-80
2021/08/19 08:40:36;;;;;;;1.45;1.20;;;19.60;90.30;;;;;;5034210;28;20428;-79
2021/08/19 08:43:04;;;;;;;3.47;1.13;;;19.60;90.40;;;;;;5044769;28;20044;-80
2021/08/19 08:45:34;;;;;;;1.77;1.25;;;19.70;90.20;;;;;;5052005;28;20024;-76
2021/08/19 08:48:04;;;;;;;3.72;1.17;;;19.80;89.80;;;;;;5052486;28;20106;-79
2021/08/19 08:50:29;;;;;;;2.42;1.30;;;19.90;89.90;;;;;;5053511;28;20029;-79
2021/08/19 08:52:57;;;;;;;4.50;1.27;;;19.80;89.20;;;;;;5052181;28;20025;-79
2021/08/19 08:55:23;;;;;;;3.10;1.20;;;19.80;88.80;;;;;;5052013;28;20115;-80
2021/08/19 08:57:49;;;;;;;3.45;1.40;;;19.90;89.50;;;;;;5051764;28;20348;-84
2021/08/19 09:00:15;;;;;;;2.20;1.13;;;19.90;88.70;;;;;;5052276;28;20440;-83
2021/08/19 09:02:41;;;;;;;1.30;1.02;;;20.00;88.70;;;;;;5052889;28;20139;-84
2021/08/19 09:05:16;;;;;;;3.03;1.77;;;20.10;88.80;;;;;;5052706;28;20425;-85
2021/08/19 09:07:50;;;;;;;1.80;1.10;;;20.20;88.50;;;;;;5053346;28;20365;-84
2021/08/19 09:10:18;;;;;;;1.95;1.40;;;20.20;87.60;;;;;;5049377;28;20083;-84
2021/08/19 09:12:44;;;;;;;2.30;1.13;;;20.20;87.30;;;;;;5052583;28;20037;-85
2021/08/19 09:15:12;;;;;;;3.72;1.27;;;20.30;87.40;;;;;;5052098;28;20037;-85
2021/08/19 09:17:44;;;;;;;6.35;1.33;;;20.30;86.90;;;;;;5052658;28;20155;-81
2021/08/19 09:20:12;;;;;;;1.92;1.17;;;20.30;86.70;;;;;;5051283;28;20089;-77
2021/08/19 09:22:55;;;;;;;3.47;1.50;;;20.30;86.70;;;;;;5051652;28;20554;-82
2021/08/19 09:25:33;;;;;;;4.18;1.25;;;20.20;86.20;;;;;;5051518;28;20033;-82
2021/08/19 09:28:24;;;;;;;1.98;1.30;;;20.20;86.60;;;;;;5052827;28;20021;-82
2021/08/19 09:30:57;;;;;;;2.60;1.33;;;20.20;86.90;;;;;;5052745;28;20083;-82
2021/08/19 09:33:27;;;;;;;2.38;1.45;;;20.20;87.10;;;;;;5051056;28;20120;-81
2021/08/19 09:35:57;;;;;;;3.83;1.25;;;20.30;87.00;;;;;;5051412;28;20126;-82
2021/08/19 09:38:25;;;;;;;2.20;1.10;;;20.20;86.30;;;;;;5051214;28;20132;-82
2021/08/19 09:41:11;;;;;;;4.88;1.10;;;20.30;86.90;;;;;;5052377;28;20108;-82
2021/08/19 09:43:40;;;;;;;4.97;1.40;;;20.30;87.00;;;;;;5051736;28;20033;-79
2021/08/19 09:46:07;;;;;;;4.57;1.48;;;20.30;87.40;;;;;;5068709;28;20424;-79
2021/08/19 09:48:34;;;;;;;3.20;1.33;;;20.20;87.50;;;;;;5052354;28;20079;-81
2021/08/19 09:51:18;;;;;;;1.90;1.20;;;20.30;87.30;;;;;;5068147;28;20037;-81
2021/08/19 09:53:45;;;;;;;2.58;1.63;;;20.40;86.90;;;;;;5053052;28;20485;-81
2021/08/19 09:56:12;;;;;;;3.40;1.30;;;20.50;86.70;;;;;;5052663;28;20037;-80
2021/08/19 09:58:39;;;;;;;1.55;1.40;;;20.60;86.50;;;;;;5052242;28;20029;-80
2021/08/19 10:01:05;;;;;;;3.05;1.30;;;20.70;86.00;;;;;;5052774;28;20025;-79
2021/08/19 10:03:31;;;;;;;1.98;1.23;;;20.80;86.20;;;;;;5051486;28;20524;-84
2021/08/19 10:05:57;;;;;;;2.88;1.52;;;20.90;85.90;;;;;;5051962;28;20029;-80
2021/08/19 10:08:23;;;;;;;3.03;1.42;;;20.90;85.70;;;;;;5051860;28;20208;-79
2021/08/19 10:10:55;;;;;;;3.47;1.60;;;21.00;85.20;;;;;;5068595;28;20036;-79
2021/08/19 10:13:22;;;;;;;2.90;1.33;;;21.00;85.00;;;;;;5050017;28;20083;-80
2021/08/19 10:15:49;;;;;;;3.90;1.40;;;20.90;85.10;;;;;;5050815;28;20111;-78
2021/08/19 10:18:19;;;;;;;3.55;1.60;;;21.00;85.50;;;;;;5051085;28;20029;-81
2021/08/19 10:20:53;;;;;;;2.20;1.40;;;21.10;84.70;;;;;;5051500;28;20071;-80
2021/08/19 10:23:21;;;;;;;1.58;1.27;;;21.10;84.50;;;;;;5067562;28;20115;-81
2021/08/19 10:26:03;;;;;;;4.30;1.40;;;21.20;84.00;;;;;;5051301;28;20028;-81
2021/08/19 10:28:47;;;;;;;1.80;1.38;;;21.30;84.40;;;;;;5055330;28;20017;-85
2021/08/19 10:31:33;;;;;;;1.10;1.00;;;21.40;82.70;;;;;;5050063;28;20482;-85
2021/08/19 10:34:00;;;;;;;1.73;1.13;;;21.50;83.40;;;;;;5055378;28;20037;-82
2021/08/19 10:36:29;;;;;;;2.33;1.27;;;21.50;83.60;;;;;;5054904;28;20029;-82
2021/08/19 10:39:20;;;;;;;1.27;1.08;;;21.50;82.90;;;;;;5054376;28;20073;-81
2021/08/19 10:41:56;;;;;;;1.33;1.00;;;21.60;82.10;;;;;;5054912;28;20039;-83
2021/08/19 10:44:44;;;;;;;2.13;1.30;;;21.70;81.40;;;;;;5053096;28;20032;-83
2021/08/19 10:47:36;;;;;;;1.08;0.98;;;21.70;81.50;;;;;;5054987;28;20047;-80
2021/08/19 10:50:28;;;;;;;2.75;1.38;;;21.80;81.20;;;;;;5054259;28;20385;-79
2021/08/19 10:52:58;;;;;;;2.75;1.20;;;21.80;80.40;;;;;;5055557;28;20056;-80
2021/08/19 10:55:24;;;;;;;3.90;1.40;;;21.70;81.00;;;;;;5040843;28;20037;-80
2021/08/19 10:57:52;;;;;;;1.63;1.10;;;21.70;81.50;;;;;;5047499;28;20021;-84
2021/08/19 11:00:34;;;;;;;1.83;1.27;;;21.80;81.70;;;;;;5049708;28;20060;-80
2021/08/19 11:03:00;;;;;;;2.83;1.10;;;22.00;81.20;;;;;;5057686;28;20033;-79
2021/08/19 11:05:26;;;;;;;2.33;1.65;;;21.90;80.50;;;;;;5053399;28;20048;-81
2021/08/19 11:07:54;;;;;;;3.63;1.30;;;21.90;80.90;;;;;;5059698;28;20508;-81
2021/08/19 11:10:28;;;;;;;1.85;1.10;;;21.90;80.20;;;;;;5055181;28;20049;-83
2021/08/19 11:13:05;;;;;;;2.63;1.10;;;22.00;80.20;;;;;;5054276;28;20032;-82
2021/08/19 11:15:32;;;;;;;1.42;1.02;;;22.10;79.20;;;;;;5054983;28;20048;-81
2021/08/19 11:17:59;;;;;;;3.33;1.23;;;22.10;79.60;;;;;;5054266;28;20025;-82
2021/08/19 11:20:31;;;;;;;1.50;1.20;;;22.10;78.80;;;;;;5051787;28;20009;-82
2021/08/19 11:23:02;;;;;;;;;;;22.20;78.40;;;;;;5056869;28;20504;-82
2021/08/19 11:25:28;;;;;;;2.35;1.30;;;22.30;77.40;;;;;;5054725;28;19908;-82
2021/08/19 11:27:55;;;;;;;2.97;1.40;;;22.30;77.90;;;;;;5054987;28;20033;-82
2021/08/19 11:30:33;;;;;;;1.92;1.27;;;22.40;78.10;;;;;;5055055;28;20083;-82
2021/08/19 11:33:19;;;;;;;1.92;1.17;;;22.40;76.80;;;;;;5054921;28;20080;-82
2021/08/19 11:35:47;;;;;;;1.80;1.15;;;22.40;77.00;;;;;;5055069;28;20036;-82
2021/08/19 11:38:18;;;;;;;1.58;1.27;;;22.40;77.20;;;;;;5054281;28;20032;-82
2021/08/19 11:40:47;;;;;;;2.28;1.25;;;22.40;77.00;;;;;;5055835;28;20052;-81
2021/08/19 11:43:29;;;;;;;1.80;1.20;;;22.50;77.10;;;;;;5054176;28;20063;-82
2021/08/19 11:46:06;;;;;;;1.48;1.10;;;22.50;77.00;;;;;;5048015;28;20070;-83
2021/08/19 11:48:33;;;;;;;2.72;1.35;;;22.60;76.70;;;;;;5053840;28;20108;-82
2021/08/19 11:51:01;;;;;;;3.22;1.38;;;22.50;76.90;;;;;;5054106;28;20032;-82
2021/08/19 11:53:27;;;;;;;1.42;1.10;;;22.40;77.70;;;;;;5054864;28;20029;-82
2021/08/19 11:55:53;;;;;;;2.45;1.27;;;22.50;78.20;;;;;;5054988;28;20032;-82
2021/08/19 11:58:19;;;;;;;1.70;1.10;;;22.50;77.60;;;;;;5054283;28;20029;-82
2021/08/19 12:01:05;;;;;;;1.40;0.90;;;22.50;77.60;;;;;;5054608;28;20543;-82
2021/08/19 12:03:41;;;;;;;0.77;0.57;;;22.40;74.30;;;;;;5053766;28;20509;-82
2021/08/19 12:06:10;;;;;;;1.05;0.60;;;22.40;74.30;;;;;;5054651;28;20430;-83
2021/08/19 12:08:48;;;;;;;1.70;0.60;;;22.60;73.50;;;;;;5053902;28;20025;-82
2021/08/19 12:11:17;;;;;;;1.38;0.70;;;22.60;73.30;;;;;;5034209;28;20033;-83
2021/08/19 12:13:43;;;;;;;2.65;0.50;;;22.80;73.20;;;;;;5034264;28;20025;-82
2021/08/19 12:16:10;;;;;;;0.80;0.50;;;23.00;71.80;;;;;;5034119;28;20026;-84
2021/08/19 12:18:35;;;;;;;0.93;0.50;;;23.10;71.10;;;;;;5053319;28;20021;-83
2021/08/19 12:21:19;;;;;;;0.50;0.38;;;23.30;71.00;;;;;;5053844;28;20020;-82
2021/08/19 12:23:47;;;;;;;0.85;0.55;;;23.60;70.40;;;;;;5053949;28;20028;-82
2021/08/19 12:26:15;;;;;;;0.85;0.40;;;23.90;69.70;;;;;;5054146;28;20118;-82
2021/08/19 12:28:56;;;;;;;1.83;0.47;;;23.90;69.50;;;;;;5053158;28;20021;-81
2021/08/19 12:31:23;;;;;;;1.10;0.50;;;24.10;67.20;;;;;;5054431;28;20017;-82
2021/08/19 12:34:08;;;;;;;0.30;0.30;;;24.10;67.30;;;;;;5073853;28;20044;-82
2021/08/19 12:36:34;;;;;;;1.35;0.60;;;24.10;67.20;;;;;;5054720;28;20033;-84
2021/08/19 12:39:36;;;;;;;0.50;0.40;;;24.00;67.70;;;;;;5070210;28;20071;-83
2021/08/19 12:42:10;;;;;;;2.25;0.50;;;23.90;67.70;;;;;;5011928;28;20052;-82
2021/08/19 12:44:37;;;;;;;2.47;0.47;;;23.70;68.30;;;;;;5048770;28;20031;-82
2021/08/19 12:47:04;;;;;;;0.98;0.50;;;23.60;68.40;;;;;;5053010;28;20021;-82
2021/08/19 12:49:30;;;;;;;0.47;0.35;;;23.30;68.50;;;;;;5052420;28;20029;-82
2021/08/19 12:52:15;;;;;;;1.60;0.50;;;23.20;67.90;;;;;;5053008;28;20021;-83